sensor_id;sensor_type;location;lat;lon;timestamp;P1;durP1;ratioP1;P2;durP2;ratioP2
41468;SDS011;27206;47.032;15.484;2023-06-22T00:00:54;12.77;;;6.38;;
41468;SDS011;27206;47.032;15.484;2023-06-22T00:03:21;13.15;;;6.40;;
41468;SDS011;27206;47.032;15.484;2023-06-22T00:05:49;9.95;;;6.00;;
41468;SDS011;27206;47.032;15.484;2023-06-22T00:08:15;12.13;;;6.25;;
41468;SDS011;27206;47.032;15.484;2023-06-22T00:10:42;11.30;;;6.63;;
41468;SDS011;27206;47.032;15.484;2023-06-22T00:13:08;9.30;;;5.30;;
41468;SDS011;27206;47.032;15.484;2023-06-22T00:15:35;12.90;;;6.07;;
41468;SDS011;27206;47.032;15.484;2023-06-22T00:18:01;11.70;;;6.32;;
41468;SDS011;27206;47.032;15.484;2023-06-22T00:20:27;12.52;;;6.00;;
41468;SDS011;27206;47.032;15.484;2023-06-22T00:22:57;14.95;;;6.47;;
41468;SDS011;27206;47.032;15.484;2023-06-22T00:25:23;11.60;;;5.28;;
41468;SDS011;27206;47.032;15.484;2023-06-22T00:27:49;12.55;;;5.97;;
41468;SDS011;27206;47.032;15.484;2023-06-22T00:30:15;12.02;;;5.95;;
41468;SDS011;27206;47.032;15.484;2023-06-22T00:32:41;13.52;;;5.90;;
41468;SDS011;27206;47.032;15.484;2023-06-22T00:35:08;10.23;;;6.00;;
41468;SDS011;27206;47.032;15.484;2023-06-22T00:37:35;12.68;;;6.00;;
41468;SDS011;27206;47.032;15.484;2023-06-22T00:40:01;14.30;;;6.32;;
41468;SDS011;27206;47.032;15.484;2023-06-22T00:42:27;10.98;;;5.80;;
41468;SDS011;27206;47.032;15.484;2023-06-22T00:44:53;16.90;;;6.00;;
41468;SDS011;27206;47.032;15.484;2023-06-22T00:47:19;11.35;;;5.57;;
41468;SDS011;27206;47.032;15.484;2023-06-22T00:49:44;12.20;;;5.40;;
41468;SDS011;27206;47.032;15.484;2023-06-22T00:52:11;12.43;;;5.28;;
41468;SDS011;27206;47.032;15.484;2023-06-22T00:54:45;14.02;;;6.18;;
41468;SDS011;27206;47.032;15.484;2023-06-22T00:57:15;10.77;;;5.25;;
41468;SDS011;27206;47.032;15.484;2023-06-22T00:59:42;14.10;;;6.32;;
41468;SDS011;27206;47.032;15.484;2023-06-22T01:02:12;14.65;;;5.82;;
41468;SDS011;27206;47.032;15.484;2023-06-22T01:04:39;11.55;;;5.30;;
41468;SDS011;27206;47.032;15.484;2023-06-22T01:07:23;12.10;;;5.72;;
41468;SDS011;27206;47.032;15.484;2023-06-22T01:12:51;11.95;;;5.28;;
41468;SDS011;27206;47.032;15.484;2023-06-22T01:15:37;9.38;;;5.43;;
41468;SDS011;27206;47.032;15.484;2023-06-22T01:18:10;8.90;;;5.38;;
41468;SDS011;27206;47.032;15.484;2023-06-22T01:20:37;15.50;;;6.22;;
41468;SDS011;27206;47.032;15.484;2023-06-22T01:28:45;11.60;;;5.53;;
41468;SDS011;27206;47.032;15.484;2023-06-22T01:31:14;14.07;;;6.38;;
41468;SDS011;27206;47.032;15.484;2023-06-22T01:33:43;15.05;;;5.65;;
41468;SDS011;27206;47.032;15.484;2023-06-22T01:36:10;8.95;;;5.65;;
41468;SDS011;27206;47.032;15.484;2023-06-22T01:38:37;8.90;;;5.50;;
41468;SDS011;27206;47.032;15.484;2023-06-22T01:41:04;10.75;;;6.18;;
41468;SDS011;27206;47.032;15.484;2023-06-22T01:43:31;13.90;;;6.55;;
41468;SDS011;27206;47.032;15.484;2023-06-22T01:45:59;13.02;;;5.93;;
41468;SDS011;27206;47.032;15.484;2023-06-22T01:48:28;11.48;;;5.75;;
41468;SDS011;27206;47.032;15.484;2023-06-22T01:50:54;11.50;;;6.18;;
41468;SDS011;27206;47.032;15.484;2023-06-22T01:53:21;12.95;;;6.43;;
41468;SDS011;27206;47.032;15.484;2023-06-22T01:55:47;15.98;;;6.38;;
41468;SDS011;27206;47.032;15.484;2023-06-22T01:58:13;13.20;;;6.63;;
41468;SDS011;27206;47.032;15.484;2023-06-22T02:00:40;14.02;;;6.75;;
41468;SDS011;27206;47.032;15.484;2023-06-22T02:03:13;14.95;;;6.40;;
41468;SDS011;27206;47.032;15.484;2023-06-22T02:05:49;10.75;;;6.30;;
41468;SDS011;27206;47.032;15.484;2023-06-22T02:08:28;11.32;;;6.03;;
41468;SDS011;27206;47.032;15.484;2023-06-22T02:11:03;12.27;;;6.07;;
41468;SDS011;27206;47.032;15.484;2023-06-22T02:13:30;16.77;;;6.45;;
41468;SDS011;27206;47.032;15.484;2023-06-22T02:15:57;11.07;;;6.72;;
41468;SDS011;27206;47.032;15.484;2023-06-22T02:18:23;12.52;;;6.55;;
41468;SDS011;27206;47.032;15.484;2023-06-22T02:20:49;11.57;;;6.35;;
41468;SDS011;27206;47.032;15.484;2023-06-22T02:23:14;11.98;;;6.40;;
41468;SDS011;27206;47.032;15.484;2023-06-22T02:25:40;14.73;;;6.57;;
41468;SDS011;27206;47.032;15.484;2023-06-22T02:28:09;15.25;;;6.72;;
41468;SDS011;27206;47.032;15.484;2023-06-22T02:30:35;10.23;;;5.80;;
41468;SDS011;27206;47.032;15.484;2023-06-22T02:33:00;11.77;;;6.32;;
41468;SDS011;27206;47.032;15.484;2023-06-22T02:35:29;10.77;;;6.05;;
41468;SDS011;27206;47.032;15.484;2023-06-22T02:37:56;12.63;;;6.05;;
41468;SDS011;27206;47.032;15.484;2023-06-22T02:40:25;13.20;;;6.57;;
41468;SDS011;27206;47.032;15.484;2023-06-22T02:42:51;12.00;;;6.30;;
41468;SDS011;27206;47.032;15.484;2023-06-22T02:45:17;13.27;;;6.63;;
41468;SDS011;27206;47.032;15.484;2023-06-22T02:47:43;10.73;;;6.57;;
41468;SDS011;27206;47.032;15.484;2023-06-22T02:50:09;11.23;;;6.30;;
41468;SDS011;27206;47.032;15.484;2023-06-22T02:52:35;13.73;;;6.03;;
41468;SDS011;27206;47.032;15.484;2023-06-22T02:55:01;12.52;;;6.13;;
41468;SDS011;27206;47.032;15.484;2023-06-22T02:57:26;13.63;;;6.30;;
41468;SDS011;27206;47.032;15.484;2023-06-22T02:59:52;11.55;;;6.35;;
41468;SDS011;27206;47.032;15.484;2023-06-22T03:02:17;12.43;;;6.70;;
41468;SDS011;27206;47.032;15.484;2023-06-22T03:04:46;12.02;;;6.13;;
41468;SDS011;27206;47.032;15.484;2023-06-22T03:07:14;18.70;;;7.00;;
41468;SDS011;27206;47.032;15.484;2023-06-22T03:09:40;12.27;;;6.50;;
41468;SDS011;27206;47.032;15.484;2023-06-22T03:12:08;14.10;;;6.50;;
41468;SDS011;27206;47.032;15.484;2023-06-22T03:14:34;13.90;;;6.38;;
41468;SDS011;27206;47.032;15.484;2023-06-22T03:16:59;11.95;;;6.32;;
41468;SDS011;27206;47.032;15.484;2023-06-22T03:19:28;10.82;;;6.45;;
41468;SDS011;27206;47.032;15.484;2023-06-22T03:21:56;15.50;;;6.88;;
41468;SDS011;27206;47.032;15.484;2023-06-22T03:24:22;15.70;;;7.18;;
41468;SDS011;27206;47.032;15.484;2023-06-22T03:26:48;13.60;;;7.13;;
41468;SDS011;27206;47.032;15.484;2023-06-22T03:29:13;14.85;;;7.30;;
41468;SDS011;27206;47.032;15.484;2023-06-22T03:31:40;15.10;;;7.35;;
41468;SDS011;27206;47.032;15.484;2023-06-22T03:34:06;14.60;;;7.60;;
41468;SDS011;27206;47.032;15.484;2023-06-22T03:36:31;14.25;;;7.13;;
41468;SDS011;27206;47.032;15.484;2023-06-22T03:38:57;14.38;;;6.90;;
41468;SDS011;27206;47.032;15.484;2023-06-22T03:41:23;19.70;;;7.03;;
41468;SDS011;27206;47.032;15.484;2023-06-22T03:43:48;14.20;;;7.68;;
41468;SDS011;27206;47.032;15.484;2023-06-22T03:46:14;19.83;;;7.78;;
41468;SDS011;27206;47.032;15.484;2023-06-22T03:48:40;15.15;;;7.40;;
41468;SDS011;27206;47.032;15.484;2023-06-22T03:51:05;17.50;;;6.97;;
41468;SDS011;27206;47.032;15.484;2023-06-22T03:53:31;13.20;;;7.28;;
41468;SDS011;27206;47.032;15.484;2023-06-22T03:55:56;15.40;;;7.90;;
41468;SDS011;27206;47.032;15.484;2023-06-22T03:58:22;13.48;;;7.38;;
41468;SDS011;27206;47.032;15.484;2023-06-22T04:00:51;14.13;;;6.95;;
41468;SDS011;27206;47.032;15.484;2023-06-22T04:03:18;14.75;;;8.23;;
41468;SDS011;27206;47.032;15.484;2023-06-22T04:05:44;16.95;;;6.43;;
41468;SDS011;27206;47.032;15.484;2023-06-22T04:08:11;10.98;;;7.18;;
41468;SDS011;27206;47.032;15.484;2023-06-22T04:10:37;14.93;;;7.40;;
41468;SDS011;27206;47.032;15.484;2023-06-22T04:13:03;13.00;;;6.75;;
41468;SDS011;27206;47.032;15.484;2023-06-22T04:15:29;11.95;;;7.13;;
41468;SDS011;27206;47.032;15.484;2023-06-22T04:17:55;13.57;;;7.13;;
41468;SDS011;27206;47.032;15.484;2023-06-22T04:20:22;16.20;;;7.05;;
41468;SDS011;27206;47.032;15.484;2023-06-22T04:22:50;11.88;;;6.72;;
41468;SDS011;27206;47.032;15.484;2023-06-22T04:25:17;13.80;;;7.72;;
41468;SDS011;27206;47.032;15.484;2023-06-22T04:27:42;18.00;;;7.50;;
41468;SDS011;27206;47.032;15.484;2023-06-22T04:30:08;13.60;;;6.93;;
41468;SDS011;27206;47.032;15.484;2023-06-22T04:32:34;13.52;;;7.38;;
41468;SDS011;27206;47.032;15.484;2023-06-22T04:35:04;13.02;;;7.30;;
41468;SDS011;27206;47.032;15.484;2023-06-22T04:37:31;14.88;;;7.38;;
41468;SDS011;27206;47.032;15.484;2023-06-22T04:39:57;16.00;;;8.13;;
41468;SDS011;27206;47.032;15.484;2023-06-22T04:42:23;12.73;;;6.95;;
41468;SDS011;27206;47.032;15.484;2023-06-22T04:44:50;13.32;;;7.88;;
41468;SDS011;27206;47.032;15.484;2023-06-22T04:47:16;14.43;;;7.78;;
41468;SDS011;27206;47.032;15.484;2023-06-22T04:49:42;16.55;;;7.57;;
41468;SDS011;27206;47.032;15.484;2023-06-22T04:52:09;15.55;;;7.90;;
41468;SDS011;27206;47.032;15.484;2023-06-22T04:54:37;17.02;;;8.00;;
41468;SDS011;27206;47.032;15.484;2023-06-22T04:57:06;15.07;;;8.27;;
41468;SDS011;27206;47.032;15.484;2023-06-22T04:59:35;15.02;;;8.73;;
41468;SDS011;27206;47.032;15.484;2023-06-22T05:02:04;18.85;;;8.23;;
41468;SDS011;27206;47.032;15.484;2023-06-22T05:04:31;22.02;;;8.45;;
41468;SDS011;27206;47.032;15.484;2023-06-22T05:06:57;15.20;;;7.78;;
41468;SDS011;27206;47.032;15.484;2023-06-22T05:09:25;16.52;;;8.00;;
41468;SDS011;27206;47.032;15.484;2023-06-22T05:11:50;14.45;;;8.10;;
41468;SDS011;27206;47.032;15.484;2023-06-22T05:14:17;17.73;;;7.97;;
41468;SDS011;27206;47.032;15.484;2023-06-22T05:16:43;13.75;;;7.65;;
41468;SDS011;27206;47.032;15.484;2023-06-22T05:19:09;14.88;;;8.40;;
41468;SDS011;27206;47.032;15.484;2023-06-22T05:21:35;16.25;;;8.35;;
41468;SDS011;27206;47.032;15.484;2023-06-22T05:24:01;16.30;;;8.55;;
41468;SDS011;27206;47.032;15.484;2023-06-22T05:26:30;20.10;;;8.00;;
41468;SDS011;27206;47.032;15.484;2023-06-22T05:28:57;17.17;;;7.97;;
41468;SDS011;27206;47.032;15.484;2023-06-22T05:31:24;16.20;;;7.97;;
41468;SDS011;27206;47.032;15.484;2023-06-22T05:33:51;17.67;;;8.32;;
41468;SDS011;27206;47.032;15.484;2023-06-22T05:36:17;11.68;;;7.38;;
41468;SDS011;27206;47.032;15.484;2023-06-22T05:38:45;16.33;;;8.40;;
41468;SDS011;27206;47.032;15.484;2023-06-22T05:41:11;14.05;;;7.72;;
41468;SDS011;27206;47.032;15.484;2023-06-22T05:43:36;14.98;;;7.53;;
41468;SDS011;27206;47.032;15.484;2023-06-22T05:46:03;17.15;;;8.07;;
41468;SDS011;27206;47.032;15.484;2023-06-22T05:48:29;13.95;;;8.35;;
41468;SDS011;27206;47.032;15.484;2023-06-22T05:50:55;15.35;;;7.82;;
41468;SDS011;27206;47.032;15.484;2023-06-22T05:53:21;13.65;;;7.32;;
41468;SDS011;27206;47.032;15.484;2023-06-22T05:55:46;15.05;;;8.00;;
41468;SDS011;27206;47.032;15.484;2023-06-22T05:58:12;15.27;;;7.95;;
41468;SDS011;27206;47.032;15.484;2023-06-22T06:00:40;17.05;;;8.25;;
41468;SDS011;27206;47.032;15.484;2023-06-22T06:03:07;17.17;;;8.20;;
41468;SDS011;27206;47.032;15.484;2023-06-22T06:05:33;15.98;;;8.25;;
41468;SDS011;27206;47.032;15.484;2023-06-22T06:08:00;18.00;;;8.52;;
41468;SDS011;27206;47.032;15.484;2023-06-22T06:10:26;15.45;;;7.57;;
41468;SDS011;27206;47.032;15.484;2023-06-22T06:12:54;19.75;;;8.20;;
41468;SDS011;27206;47.032;15.484;2023-06-22T06:15:20;16.27;;;8.38;;
41468;SDS011;27206;47.032;15.484;2023-06-22T06:17:47;14.25;;;7.18;;
41468;SDS011;27206;47.032;15.484;2023-06-22T06:20:12;17.30;;;8.02;;
41468;SDS011;27206;47.032;15.484;2023-06-22T06:22:38;14.48;;;7.85;;
41468;SDS011;27206;47.032;15.484;2023-06-22T06:25:04;14.25;;;7.75;;
41468;SDS011;27206;47.032;15.484;2023-06-22T06:27:30;15.13;;;6.97;;
41468;SDS011;27206;47.032;15.484;2023-06-22T06:29:56;16.33;;;8.63;;
41468;SDS011;27206;47.032;15.484;2023-06-22T06:32:22;17.67;;;7.90;;
41468;SDS011;27206;47.032;15.484;2023-06-22T06:34:47;16.58;;;7.25;;
41468;SDS011;27206;47.032;15.484;2023-06-22T06:37:13;14.90;;;7.50;;
41468;SDS011;27206;47.032;15.484;2023-06-22T06:39:39;13.35;;;7.30;;
41468;SDS011;27206;47.032;15.484;2023-06-22T06:42:04;15.00;;;7.90;;
41468;SDS011;27206;47.032;15.484;2023-06-22T06:44:30;18.10;;;7.40;;
41468;SDS011;27206;47.032;15.484;2023-06-22T06:46:56;16.67;;;8.20;;
41468;SDS011;27206;47.032;15.484;2023-06-22T06:49:22;16.67;;;7.70;;
41468;SDS011;27206;47.032;15.484;2023-06-22T06:51:48;15.93;;;8.13;;
41468;SDS011;27206;47.032;15.484;2023-06-22T06:54:13;17.80;;;8.15;;
41468;SDS011;27206;47.032;15.484;2023-06-22T06:56:39;17.42;;;7.50;;
41468;SDS011;27206;47.032;15.484;2023-06-22T06:59:04;14.23;;;8.00;;
41468;SDS011;27206;47.032;15.484;2023-06-22T07:01:30;14.60;;;7.78;;
41468;SDS011;27206;47.032;15.484;2023-06-22T07:03:58;14.15;;;7.50;;
41468;SDS011;27206;47.032;15.484;2023-06-22T07:06:25;18.00;;;7.82;;
41468;SDS011;27206;47.032;15.484;2023-06-22T07:08:54;16.25;;;7.78;;
41468;SDS011;27206;47.032;15.484;2023-06-22T07:11:20;17.02;;;7.65;;
41468;SDS011;27206;47.032;15.484;2023-06-22T07:13:46;13.88;;;7.60;;
41468;SDS011;27206;47.032;15.484;2023-06-22T07:16:11;12.30;;;6.70;;
41468;SDS011;27206;47.032;15.484;2023-06-22T07:18:39;15.75;;;6.78;;
41468;SDS011;27206;47.032;15.484;2023-06-22T07:21:05;15.18;;;7.00;;
41468;SDS011;27206;47.032;15.484;2023-06-22T07:23:32;12.30;;;6.32;;
41468;SDS011;27206;47.032;15.484;2023-06-22T07:25:57;14.40;;;6.53;;
41468;SDS011;27206;47.032;15.484;2023-06-22T07:28:26;13.55;;;6.38;;
41468;SDS011;27206;47.032;15.484;2023-06-22T07:30:53;15.18;;;7.10;;
41468;SDS011;27206;47.032;15.484;2023-06-22T07:33:18;17.58;;;7.35;;
41468;SDS011;27206;47.032;15.484;2023-06-22T07:35:44;14.73;;;7.20;;
41468;SDS011;27206;47.032;15.484;2023-06-22T07:38:11;13.48;;;7.75;;
41468;SDS011;27206;47.032;15.484;2023-06-22T07:40:37;13.98;;;6.72;;
41468;SDS011;27206;47.032;15.484;2023-06-22T07:43:03;12.80;;;6.97;;
41468;SDS011;27206;47.032;15.484;2023-06-22T07:45:29;11.73;;;6.53;;
41468;SDS011;27206;47.032;15.484;2023-06-22T07:47:54;12.38;;;6.43;;
41468;SDS011;27206;47.032;15.484;2023-06-22T07:50:20;14.65;;;7.00;;
41468;SDS011;27206;47.032;15.484;2023-06-22T07:52:46;12.00;;;6.57;;
41468;SDS011;27206;47.032;15.484;2023-06-22T07:55:13;14.82;;;6.70;;
41468;SDS011;27206;47.032;15.484;2023-06-22T07:57:38;12.52;;;7.15;;
41468;SDS011;27206;47.032;15.484;2023-06-22T08:00:06;14.23;;;7.45;;
41468;SDS011;27206;47.032;15.484;2023-06-22T08:02:39;12.13;;;7.10;;
41468;SDS011;27206;47.032;15.484;2023-06-22T08:05:06;13.55;;;6.43;;
41468;SDS011;27206;47.032;15.484;2023-06-22T08:07:33;11.50;;;6.28;;
41468;SDS011;27206;47.032;15.484;2023-06-22T08:10:02;14.52;;;6.25;;
41468;SDS011;27206;47.032;15.484;2023-06-22T08:12:28;13.20;;;6.60;;
41468;SDS011;27206;47.032;15.484;2023-06-22T08:14:54;24.05;;;7.07;;
41468;SDS011;27206;47.032;15.484;2023-06-22T08:17:21;16.30;;;7.28;;
41468;SDS011;27206;47.032;15.484;2023-06-22T08:19:48;12.77;;;6.50;;
41468;SDS011;27206;47.032;15.484;2023-06-22T08:22:13;14.40;;;6.40;;
41468;SDS011;27206;47.032;15.484;2023-06-22T08:24:40;11.52;;;6.20;;
41468;SDS011;27206;47.032;15.484;2023-06-22T08:27:09;10.65;;;6.40;;
41468;SDS011;27206;47.032;15.484;2023-06-22T08:29:39;13.25;;;6.88;;
41468;SDS011;27206;47.032;15.484;2023-06-22T08:32:08;14.52;;;6.60;;
41468;SDS011;27206;47.032;15.484;2023-06-22T08:34:34;13.63;;;6.63;;
41468;SDS011;27206;47.032;15.484;2023-06-22T08:36:59;12.38;;;7.15;;
41468;SDS011;27206;47.032;15.484;2023-06-22T08:39:25;17.20;;;6.65;;
41468;SDS011;27206;47.032;15.484;2023-06-22T08:41:52;11.20;;;6.97;;
41468;SDS011;27206;47.032;15.484;2023-06-22T08:44:18;17.95;;;6.50;;
41468;SDS011;27206;47.032;15.484;2023-06-22T08:46:44;15.07;;;6.82;;
41468;SDS011;27206;47.032;15.484;2023-06-22T08:49:10;13.02;;;6.82;;
41468;SDS011;27206;47.032;15.484;2023-06-22T08:51:36;13.60;;;7.03;;
41468;SDS011;27206;47.032;15.484;2023-06-22T08:54:01;13.50;;;7.05;;
41468;SDS011;27206;47.032;15.484;2023-06-22T08:56:27;10.05;;;6.97;;
41468;SDS011;27206;47.032;15.484;2023-06-22T08:58:52;13.98;;;7.50;;
41468;SDS011;27206;47.032;15.484;2023-06-22T09:01:18;10.88;;;6.18;;
41468;SDS011;27206;47.032;15.484;2023-06-22T09:03:44;16.10;;;7.28;;
41468;SDS011;27206;47.032;15.484;2023-06-22T09:06:18;14.25;;;7.18;;
41468;SDS011;27206;47.032;15.484;2023-06-22T09:08:45;14.70;;;6.85;;
41468;SDS011;27206;47.032;15.484;2023-06-22T09:11:11;13.43;;;6.85;;
41468;SDS011;27206;47.032;15.484;2023-06-22T09:13:36;11.52;;;6.50;;
41468;SDS011;27206;47.032;15.484;2023-06-22T09:16:02;12.45;;;7.20;;
41468;SDS011;27206;47.032;15.484;2023-06-22T09:18:28;12.38;;;7.22;;
41468;SDS011;27206;47.032;15.484;2023-06-22T09:20:53;14.38;;;6.40;;
41468;SDS011;27206;47.032;15.484;2023-06-22T09:23:19;12.18;;;6.65;;
41468;SDS011;27206;47.032;15.484;2023-06-22T09:25:45;18.42;;;7.53;;
41468;SDS011;27206;47.032;15.484;2023-06-22T09:28:12;11.88;;;7.00;;
41468;SDS011;27206;47.032;15.484;2023-06-22T09:30:39;15.75;;;7.00;;
41468;SDS011;27206;47.032;15.484;2023-06-22T09:33:04;15.25;;;6.75;;
41468;SDS011;27206;47.032;15.484;2023-06-22T09:35:30;12.55;;;7.10;;
41468;SDS011;27206;47.032;15.484;2023-06-22T09:37:55;13.18;;;7.47;;
41468;SDS011;27206;47.032;15.484;2023-06-22T09:40:21;11.90;;;6.82;;
41468;SDS011;27206;47.032;15.484;2023-06-22T09:42:46;12.45;;;6.90;;
41468;SDS011;27206;47.032;15.484;2023-06-22T09:45:12;11.73;;;6.95;;
41468;SDS011;27206;47.032;15.484;2023-06-22T09:47:38;14.73;;;7.47;;
41468;SDS011;27206;47.032;15.484;2023-06-22T09:50:04;11.73;;;6.78;;
41468;SDS011;27206;47.032;15.484;2023-06-22T09:52:30;11.90;;;7.18;;
41468;SDS011;27206;47.032;15.484;2023-06-22T09:54:56;17.25;;;6.65;;
41468;SDS011;27206;47.032;15.484;2023-06-22T09:57:21;11.82;;;6.97;;
41468;SDS011;27206;47.032;15.484;2023-06-22T09:59:47;11.73;;;6.25;;
41468;SDS011;27206;47.032;15.484;2023-06-22T10:02:12;13.57;;;6.40;;
41468;SDS011;27206;47.032;15.484;2023-06-22T10:04:38;11.02;;;6.55;;
41468;SDS011;27206;47.032;15.484;2023-06-22T10:07:05;11.23;;;6.45;;
41468;SDS011;27206;47.032;15.484;2023-06-22T10:09:31;11.75;;;6.55;;
41468;SDS011;27206;47.032;15.484;2023-06-22T10:11:56;14.65;;;6.60;;
41468;SDS011;27206;47.032;15.484;2023-06-22T10:14:22;15.18;;;6.65;;
41468;SDS011;27206;47.032;15.484;2023-06-22T10:16:49;11.85;;;6.72;;
41468;SDS011;27206;47.032;15.484;2023-06-22T10:19:16;10.48;;;6.03;;
41468;SDS011;27206;47.032;15.484;2023-06-22T10:21:41;12.68;;;7.03;;
41468;SDS011;27206;47.032;15.484;2023-06-22T10:24:07;12.25;;;6.90;;
41468;SDS011;27206;47.032;15.484;2023-06-22T10:26:33;14.00;;;6.53;;
41468;SDS011;27206;47.032;15.484;2023-06-22T10:29:00;11.40;;;6.60;;
41468;SDS011;27206;47.032;15.484;2023-06-22T10:31:26;16.75;;;7.30;;
41468;SDS011;27206;47.032;15.484;2023-06-22T10:33:52;13.73;;;6.90;;
41468;SDS011;27206;47.032;15.484;2023-06-22T10:36:19;14.77;;;7.00;;
41468;SDS011;27206;47.032;15.484;2023-06-22T10:38:45;11.27;;;6.88;;
41468;SDS011;27206;47.032;15.484;2023-06-22T10:41:12;11.38;;;6.63;;
41468;SDS011;27206;47.032;15.484;2023-06-22T10:43:38;12.90;;;6.50;;
41468;SDS011;27206;47.032;15.484;2023-06-22T10:46:03;16.33;;;6.63;;
41468;SDS011;27206;47.032;15.484;2023-06-22T10:48:29;11.20;;;6.65;;
41468;SDS011;27206;47.032;15.484;2023-06-22T10:50:54;9.88;;;6.15;;
41468;SDS011;27206;47.032;15.484;2023-06-22T10:53:20;14.88;;;7.70;;
41468;SDS011;27206;47.032;15.484;2023-06-22T10:55:46;12.05;;;6.82;;
41468;SDS011;27206;47.032;15.484;2023-06-22T10:58:12;12.88;;;6.15;;
41468;SDS011;27206;47.032;15.484;2023-06-22T11:00:38;13.43;;;6.72;;
41468;SDS011;27206;47.032;15.484;2023-06-22T11:03:04;18.08;;;7.00;;
41468;SDS011;27206;47.032;15.484;2023-06-22T11:05:29;11.55;;;6.82;;
41468;SDS011;27206;47.032;15.484;2023-06-22T11:07:55;12.80;;;7.20;;
41468;SDS011;27206;47.032;15.484;2023-06-22T11:10:21;13.07;;;7.22;;
41468;SDS011;27206;47.032;15.484;2023-06-22T11:12:46;14.55;;;6.57;;
41468;SDS011;27206;47.032;15.484;2023-06-22T11:15:12;12.18;;;6.85;;
41468;SDS011;27206;47.032;15.484;2023-06-22T11:17:38;12.25;;;7.05;;
41468;SDS011;27206;47.032;15.484;2023-06-22T11:20:04;13.57;;;6.80;;
41468;SDS011;27206;47.032;15.484;2023-06-22T11:22:35;14.23;;;7.05;;
41468;SDS011;27206;47.032;15.484;2023-06-22T11:25:04;14.50;;;6.53;;
41468;SDS011;27206;47.032;15.484;2023-06-22T11:27:31;11.55;;;7.00;;
41468;SDS011;27206;47.032;15.484;2023-06-22T11:29:57;20.20;;;7.07;;
41468;SDS011;27206;47.032;15.484;2023-06-22T11:32:23;11.55;;;7.30;;
41468;SDS011;27206;47.032;15.484;2023-06-22T11:34:48;12.60;;;6.80;;
41468;SDS011;27206;47.032;15.484;2023-06-22T11:37:14;19.55;;;7.15;;
41468;SDS011;27206;47.032;15.484;2023-06-22T11:39:40;11.45;;;6.57;;
41468;SDS011;27206;47.032;15.484;2023-06-22T11:42:07;11.15;;;6.85;;
41468;SDS011;27206;47.032;15.484;2023-06-22T11:44:33;13.25;;;7.35;;
41468;SDS011;27206;47.032;15.484;2023-06-22T11:46:59;13.68;;;7.18;;
41468;SDS011;27206;47.032;15.484;2023-06-22T11:49:26;14.38;;;7.43;;
41468;SDS011;27206;47.032;15.484;2023-06-22T11:51:52;13.27;;;7.00;;
41468;SDS011;27206;47.032;15.484;2023-06-22T11:54:18;13.05;;;6.57;;
41468;SDS011;27206;47.032;15.484;2023-06-22T11:56:43;16.25;;;7.25;;
41468;SDS011;27206;47.032;15.484;2023-06-22T11:59:09;13.45;;;7.07;;
41468;SDS011;27206;47.032;15.484;2023-06-22T12:01:35;11.15;;;6.53;;
41468;SDS011;27206;47.032;15.484;2023-06-22T12:04:00;12.40;;;6.68;;
41468;SDS011;27206;47.032;15.484;2023-06-22T12:06:26;14.77;;;7.10;;
41468;SDS011;27206;47.032;15.484;2023-06-22T12:08:52;11.80;;;6.72;;
41468;SDS011;27206;47.032;15.484;2023-06-22T12:11:17;13.95;;;6.43;;
41468;SDS011;27206;47.032;15.484;2023-06-22T12:13:43;11.63;;;7.03;;
41468;SDS011;27206;47.032;15.484;2023-06-22T12:16:08;11.85;;;6.13;;
41468;SDS011;27206;47.032;15.484;2023-06-22T12:18:34;12.10;;;6.30;;
41468;SDS011;27206;47.032;15.484;2023-06-22T12:21:00;9.85;;;6.18;;
41468;SDS011;27206;47.032;15.484;2023-06-22T12:23:25;13.40;;;6.90;;
41468;SDS011;27206;47.032;15.484;2023-06-22T12:25:51;11.20;;;6.70;;
41468;SDS011;27206;47.032;15.484;2023-06-22T12:28:16;10.02;;;6.72;;
41468;SDS011;27206;47.032;15.484;2023-06-22T12:30:42;13.20;;;6.55;;
41468;SDS011;27206;47.032;15.484;2023-06-22T12:33:08;11.25;;;6.70;;
41468;SDS011;27206;47.032;15.484;2023-06-22T12:35:34;15.05;;;7.22;;
41468;SDS011;27206;47.032;15.484;2023-06-22T12:37:59;13.30;;;6.63;;
41468;SDS011;27206;47.032;15.484;2023-06-22T12:40:25;12.05;;;6.82;;
41468;SDS011;27206;47.032;15.484;2023-06-22T12:42:50;14.05;;;7.15;;
41468;SDS011;27206;47.032;15.484;2023-06-22T12:45:16;11.95;;;7.38;;
41468;SDS011;27206;47.032;15.484;2023-06-22T12:47:42;15.40;;;6.30;;
41468;SDS011;27206;47.032;15.484;2023-06-22T12:50:08;12.65;;;6.95;;
41468;SDS011;27206;47.032;15.484;2023-06-22T12:52:35;14.52;;;7.00;;
41468;SDS011;27206;47.032;15.484;2023-06-22T12:55:04;16.73;;;7.35;;
41468;SDS011;27206;47.032;15.484;2023-06-22T12:57:29;17.77;;;6.90;;
41468;SDS011;27206;47.032;15.484;2023-06-22T12:59:55;12.95;;;6.90;;
41468;SDS011;27206;47.032;15.484;2023-06-22T13:02:22;11.75;;;6.65;;
41468;SDS011;27206;47.032;15.484;2023-06-22T13:04:47;11.18;;;6.40;;
41468;SDS011;27206;47.032;15.484;2023-06-22T13:07:13;13.90;;;7.18;;
41468;SDS011;27206;47.032;15.484;2023-06-22T13:09:38;21.95;;;6.75;;
41468;SDS011;27206;47.032;15.484;2023-06-22T13:12:04;10.68;;;6.40;;
41468;SDS011;27206;47.032;15.484;2023-06-22T13:14:30;13.30;;;6.75;;
41468;SDS011;27206;47.032;15.484;2023-06-22T13:16:56;12.40;;;6.22;;
41468;SDS011;27206;47.032;15.484;2023-06-22T13:19:21;13.98;;;6.75;;
41468;SDS011;27206;47.032;15.484;2023-06-22T13:21:47;10.70;;;6.72;;
41468;SDS011;27206;47.032;15.484;2023-06-22T13:24:12;12.60;;;6.70;;
41468;SDS011;27206;47.032;15.484;2023-06-22T13:26:38;13.73;;;6.75;;
41468;SDS011;27206;47.032;15.484;2023-06-22T13:29:04;11.82;;;6.47;;
41468;SDS011;27206;47.032;15.484;2023-06-22T13:31:29;13.00;;;6.88;;
41468;SDS011;27206;47.032;15.484;2023-06-22T13:33:55;14.02;;;6.72;;
41468;SDS011;27206;47.032;15.484;2023-06-22T13:36:20;13.27;;;6.88;;
41468;SDS011;27206;47.032;15.484;2023-06-22T13:38:48;14.63;;;7.15;;
41468;SDS011;27206;47.032;15.484;2023-06-22T13:41:14;12.50;;;6.57;;
41468;SDS011;27206;47.032;15.484;2023-06-22T13:43:39;14.35;;;6.90;;
41468;SDS011;27206;47.032;15.484;2023-06-22T13:46:05;12.50;;;6.93;;
41468;SDS011;27206;47.032;15.484;2023-06-22T13:48:30;12.05;;;7.05;;
41468;SDS011;27206;47.032;15.484;2023-06-22T13:50:56;13.25;;;7.45;;
41468;SDS011;27206;47.032;15.484;2023-06-22T13:53:24;11.23;;;6.80;;
41468;SDS011;27206;47.032;15.484;2023-06-22T13:55:51;12.57;;;6.55;;
41468;SDS011;27206;47.032;15.484;2023-06-22T13:58:16;8.80;;;6.82;;
41468;SDS011;27206;47.032;15.484;2023-06-22T14:00:44;13.73;;;7.20;;
41468;SDS011;27206;47.032;15.484;2023-06-22T14:03:10;14.13;;;7.07;;
41468;SDS011;27206;47.032;15.484;2023-06-22T14:05:36;14.13;;;7.93;;
41468;SDS011;27206;47.032;15.484;2023-06-22T14:08:01;11.45;;;6.97;;
41468;SDS011;27206;47.032;15.484;2023-06-22T14:10:27;14.65;;;7.53;;
41468;SDS011;27206;47.032;15.484;2023-06-22T14:12:52;10.35;;;6.63;;
41468;SDS011;27206;47.032;15.484;2023-06-22T14:15:18;15.88;;;6.70;;
41468;SDS011;27206;47.032;15.484;2023-06-22T14:17:44;12.55;;;7.25;;
41468;SDS011;27206;47.032;15.484;2023-06-22T14:20:09;13.38;;;7.38;;
41468;SDS011;27206;47.032;15.484;2023-06-22T14:22:35;14.23;;;7.30;;
41468;SDS011;27206;47.032;15.484;2023-06-22T14:25:01;13.68;;;6.95;;